createdAt,value
2022-10-31T00:01:02.506Z,24.42
2022-10-31T00:03:31.881Z,24.65
2022-10-31T00:06:02.800Z,24.58
2022-10-31T00:08:30.927Z,24.80
2022-10-31T00:10:59.327Z,23.05
2022-10-31T00:13:27.375Z,23.88
2022-10-31T00:15:55.655Z,24.88
2022-10-31T00:18:23.638Z,24.88
2022-10-31T00:21:01.027Z,25.20
2022-10-31T00:23:29.000Z,26.25
2022-10-31T00:26:02.175Z,26.90
2022-10-31T00:28:31.300Z,26.35
2022-10-31T00:31:01.482Z,29.02
2022-10-31T00:33:29.832Z,25.98
2022-10-31T00:35:59.434Z,26.38
2022-10-31T00:38:27.482Z,25.38
2022-10-31T00:40:55.751Z,27.13
2022-10-31T00:43:23.789Z,27.70
2022-10-31T00:45:52.032Z,26.92
2022-10-31T00:48:20.103Z,27.58
2022-10-31T00:50:49.449Z,28.48
2022-10-31T00:53:18.787Z,27.13
2022-10-31T00:55:48.471Z,26.60
2022-10-31T00:58:16.830Z,27.20
2022-10-31T01:00:48.160Z,26.60
2022-10-31T01:03:19.052Z,27.08
2022-10-31T01:05:47.412Z,27.98
2022-10-31T01:08:15.672Z,26.23
2022-10-31T01:10:46.176Z,25.60
2022-10-31T01:13:14.243Z,26.70
2022-10-31T01:15:42.400Z,27.05
2022-10-31T01:18:10.382Z,29.08
2022-10-31T01:20:38.647Z,27.15
2022-10-31T01:23:06.665Z,24.95
2022-10-31T01:25:35.078Z,27.30
2022-10-31T01:28:04.494Z,28.33
2022-10-31T01:30:32.656Z,28.45
2022-10-31T01:33:00.991Z,28.02
2022-10-31T01:35:30.232Z,29.55
2022-10-31T01:37:58.481Z,27.15
2022-10-31T01:40:26.495Z,27.17
2022-10-31T01:42:55.728Z,27.33
2022-10-31T01:45:26.414Z,27.55
2022-10-31T01:47:54.619Z,26.63
2022-10-31T01:50:30.248Z,26.38
2022-10-31T01:52:59.907Z,27.73
2022-10-31T01:55:31.690Z,28.35
2022-10-31T01:58:04.145Z,27.10
2022-10-31T02:00:33.943Z,26.50
2022-10-31T02:03:02.504Z,27.23
2022-10-31T02:05:32.422Z,28.35
2022-10-31T02:08:04.871Z,28.10
2022-10-31T02:10:34.990Z,27.73
2022-10-31T02:13:05.827Z,31.50
2022-10-31T02:15:40.245Z,32.05
2022-10-31T02:18:09.867Z,31.45
2022-10-31T02:20:46.262Z,29.33
2022-10-31T02:23:51.024Z,29.48
2022-10-31T02:26:47.171Z,30.73
2022-10-31T02:29:43.972Z,31.40
2022-10-31T02:32:20.395Z,30.25
2022-10-31T02:34:54.699Z,29.02
2022-10-31T02:37:29.662Z,28.58
2022-10-31T02:40:10.406Z,29.13
2022-10-31T02:43:05.754Z,29.98
2022-10-31T02:45:43.988Z,30.83
2022-10-31T02:48:20.930Z,31.58
2022-10-31T02:50:54.647Z,28.80
2022-10-31T02:53:22.805Z,28.02
2022-10-31T02:56:00.847Z,27.52
2022-10-31T02:58:32.400Z,27.42
2022-10-31T03:01:24.319Z,31.77
2022-10-31T03:04:13.966Z,31.38
2022-10-31T03:06:51.388Z,28.98
2022-10-31T03:09:25.538Z,31.08
2022-10-31T03:12:02.680Z,28.83
2022-10-31T03:14:40.203Z,33.40
2022-10-31T03:17:14.288Z,38.90
2022-10-31T03:19:46.858Z,34.50
2022-10-31T03:22:19.570Z,30.75
2022-10-31T03:24:50.294Z,31.20
2022-10-31T03:27:24.175Z,32.60
2022-10-31T03:29:54.751Z,32.35
2022-10-31T03:32:28.008Z,38.65
2022-10-31T03:35:01.450Z,45.00
2022-10-31T03:37:31.885Z,40.65
2022-10-31T03:40:02.203Z,34.75
2022-10-31T03:42:33.353Z,39.95
2022-10-31T03:45:06.703Z,34.58
2022-10-31T03:47:35.938Z,34.55
2022-10-31T03:50:06.808Z,33.40
2022-10-31T03:52:43.579Z,32.22
2022-10-31T03:55:18.713Z,31.98
2022-10-31T03:57:53.277Z,31.23
2022-10-31T04:00:22.899Z,32.85
2022-10-31T04:03:01.191Z,31.50
2022-10-31T04:05:34.962Z,29.73
2022-10-31T04:08:07.992Z,31.80
2022-10-31T04:10:39.128Z,30.88
2022-10-31T04:13:09.998Z,31.25
2022-10-31T04:15:46.835Z,31.05
2022-10-31T04:18:15.316Z,30.90
2022-10-31T04:20:44.717Z,31.38
2022-10-31T04:23:21.506Z,32.40
2022-10-31T04:25:50.373Z,34.08
2022-10-31T04:30:53.330Z,35.45
2022-10-31T04:33:22.359Z,36.88
2022-10-31T04:35:51.747Z,35.85
2022-10-31T04:38:20.184Z,40.30
2022-10-31T04:40:49.528Z,42.58
2022-10-31T04:43:49.666Z,39.03
2022-10-31T04:46:17.965Z,36.50
2022-10-31T04:48:46.330Z,37.58
2022-10-31T04:51:15.633Z,36.65
2022-10-31T04:53:44.166Z,39.13
2022-10-31T04:56:30.003Z,34.22
2022-10-31T04:59:03.848Z,35.22
2022-10-31T05:01:43.133Z,35.22
2022-10-31T05:04:12.681Z,38.53
2022-10-31T05:06:42.037Z,38.42
2022-10-31T05:09:10.470Z,36.13
2022-10-31T05:11:39.427Z,37.20
2022-10-31T05:14:24.274Z,36.72
2022-10-31T05:17:18.191Z,38.58
2022-10-31T05:20:27.199Z,35.05
2022-10-31T05:23:17.829Z,35.65
2022-10-31T05:25:46.091Z,34.75
2022-10-31T05:28:14.383Z,34.88
2022-10-31T05:30:42.711Z,33.70
2022-10-31T05:33:14.521Z,33.80
2022-10-31T05:35:42.675Z,33.67
2022-10-31T05:38:30.382Z,33.20
2022-10-31T05:41:02.972Z,34.50
2022-10-31T05:43:33.310Z,34.17
2022-10-31T05:46:03.620Z,40.05
2022-10-31T05:49:02.570Z,41.33
2022-10-31T05:52:09.069Z,39.47
2022-10-31T05:54:48.280Z,37.28
2022-10-31T05:57:16.519Z,38.78
2022-10-31T05:59:44.518Z,34.42
2022-10-31T06:02:12.673Z,34.45
2022-10-31T06:05:13.723Z,35.28
2022-10-31T06:07:42.976Z,33.85
2022-10-31T06:10:12.557Z,31.48
2022-10-31T06:12:41.591Z,35.20
2022-10-31T06:15:24.733Z,31.83
2022-10-31T06:18:04.918Z,36.60
2022-10-31T06:20:37.181Z,34.10
2022-10-31T06:23:07.365Z,32.65
2022-10-31T06:25:37.804Z,29.63
2022-10-31T06:28:07.050Z,28.73
2022-10-31T06:30:48.322Z,28.70
2022-10-31T06:33:17.289Z,27.85
2022-10-31T06:35:55.739Z,30.05
2022-10-31T06:38:24.402Z,28.98
2022-10-31T06:40:54.522Z,29.17
2022-10-31T06:43:24.855Z,28.13
2022-10-31T06:46:05.259Z,28.27
2022-10-31T06:48:37.538Z,28.60
2022-10-31T06:51:40.785Z,29.73
2022-10-31T06:54:09.067Z,29.30
2022-10-31T06:56:39.813Z,28.23
2022-10-31T06:59:08.064Z,26.60
2022-10-31T07:01:54.794Z,27.65
2022-10-31T07:04:23.601Z,26.02
2022-10-31T07:06:53.536Z,25.83
2022-10-31T07:09:22.182Z,26.95
2022-10-31T07:11:54.406Z,24.65
2022-10-31T07:14:22.638Z,25.73
2022-10-31T07:16:51.375Z,26.50
2022-10-31T07:19:24.855Z,25.40
2022-10-31T07:21:53.074Z,23.42
2022-10-31T07:24:21.180Z,26.13
2022-10-31T07:27:26.355Z,25.30
2022-10-31T07:29:54.787Z,27.10
2022-10-31T07:32:22.904Z,28.23
2022-10-31T07:34:57.647Z,29.55
2022-10-31T07:37:34.559Z,27.92
2022-10-31T07:40:02.671Z,28.05
2022-10-31T07:42:37.241Z,25.77
2022-10-31T07:45:06.114Z,31.65
2022-10-31T07:47:53.842Z,27.60
2022-10-31T07:50:41.136Z,27.63
2022-10-31T07:53:44.212Z,25.02
2022-10-31T07:56:18.247Z,27.05
2022-10-31T07:58:47.835Z,26.75
2022-10-31T08:01:15.879Z,25.52
2022-10-31T08:03:52.219Z,25.98
2022-10-31T08:06:38.496Z,25.92
2022-10-31T08:09:20.575Z,20.92
2022-10-31T08:11:50.586Z,22.60
2022-10-31T08:14:20.082Z,20.10
2022-10-31T08:16:48.101Z,20.95
2022-10-31T08:19:16.442Z,18.85
2022-10-31T08:21:45.134Z,19.88
2022-10-31T08:24:13.251Z,18.17
2022-10-31T08:26:42.256Z,18.67
2022-10-31T08:29:12.224Z,18.15
2022-10-31T08:31:43.258Z,18.02
2022-10-31T08:34:29.863Z,19.10
2022-10-31T08:37:20.826Z,16.98
2022-10-31T08:39:53.454Z,17.00
2022-10-31T08:42:22.651Z,16.15
2022-10-31T08:44:51.441Z,14.63
2022-10-31T08:47:24.026Z,17.00
2022-10-31T08:49:52.066Z,14.32
2022-10-31T08:52:44.155Z,16.50
2022-10-31T08:55:13.525Z,14.00
2022-10-31T08:58:04.357Z,13.75
2022-10-31T09:00:41.624Z,17.92
2022-10-31T09:03:19.495Z,19.52
2022-10-31T09:05:47.768Z,20.30
2022-10-31T09:08:17.204Z,20.27
2022-10-31T09:10:47.945Z,15.52
2022-10-31T09:13:22.414Z,13.73
2022-10-31T09:16:10.430Z,13.48
2022-10-31T09:18:39.987Z,16.48
2022-10-31T09:21:09.490Z,17.60
2022-10-31T09:23:37.582Z,14.65
2022-10-31T09:26:06.275Z,14.80
2022-10-31T09:28:40.088Z,14.88
2022-10-31T09:31:10.985Z,14.55
2022-10-31T09:33:58.856Z,19.38
2022-10-31T09:36:32.671Z,15.60
2022-10-31T09:39:00.846Z,14.75
2022-10-31T09:41:35.361Z,15.20
2022-10-31T09:44:12.775Z,18.15
2022-10-31T09:46:54.568Z,16.48
2022-10-31T09:49:38.784Z,14.82
2022-10-31T09:52:15.090Z,16.58
2022-10-31T09:54:47.401Z,15.85
2022-10-31T09:57:24.620Z,17.67
2022-10-31T09:59:53.331Z,16.30
2022-10-31T10:02:27.836Z,16.73
2022-10-31T10:05:00.386Z,16.00
2022-10-31T10:07:41.046Z,14.07
2022-10-31T10:10:18.286Z,14.88
2022-10-31T10:13:50.121Z,15.20
2022-10-31T10:16:34.104Z,13.50
2022-10-31T10:19:14.322Z,18.20
2022-10-31T10:21:50.977Z,15.40
2022-10-31T10:24:35.704Z,12.88
2022-10-31T10:27:16.788Z,12.95
2022-10-31T10:29:52.799Z,13.77
2022-10-31T10:32:25.420Z,13.18
2022-10-31T10:34:57.127Z,17.77
2022-10-31T10:37:32.819Z,13.23
2022-10-31T10:40:09.865Z,14.50
2022-10-31T10:42:56.260Z,13.68
2022-10-31T10:45:41.631Z,15.13
2022-10-31T10:48:28.248Z,15.75
2022-10-31T10:50:56.404Z,14.48
2022-10-31T10:54:00.339Z,11.70
2022-10-31T10:56:40.713Z,11.27
2022-10-31T10:59:13.093Z,10.05
2022-10-31T11:01:42.933Z,15.18
2022-10-31T11:04:27.313Z,15.65
2022-10-31T11:07:03.563Z,8.45
2022-10-31T11:09:33.441Z,7.70
2022-10-31T11:12:07.842Z,7.43
2022-10-31T11:14:44.499Z,6.28
2022-10-31T11:17:19.640Z,12.70
2022-10-31T11:19:47.648Z,7.00
2022-10-31T11:22:19.357Z,8.05
2022-10-31T11:24:48.872Z,8.75
2022-10-31T11:27:21.672Z,9.52
2022-10-31T11:29:50.725Z,8.20
2022-10-31T11:32:22.940Z,9.43
2022-10-31T11:34:54.184Z,5.15
2022-10-31T11:37:25.483Z,7.70
2022-10-31T11:39:57.419Z,8.32
2022-10-31T11:42:27.811Z,11.52
2022-10-31T11:44:57.359Z,12.90
2022-10-31T11:47:29.479Z,12.35
2022-10-31T11:49:59.049Z,9.07
2022-10-31T11:52:30.194Z,12.48
2022-10-31T11:55:03.912Z,8.57
2022-10-31T11:57:34.429Z,14.15
2022-10-31T12:00:06.073Z,11.02
2022-10-31T12:02:43.245Z,15.10
2022-10-31T12:05:21.000Z,16.75
2022-10-31T12:07:50.495Z,16.67
2022-10-31T12:10:23.819Z,15.70
2022-10-31T12:13:08.047Z,18.60
2022-10-31T12:15:38.626Z,15.60
2022-10-31T12:18:30.592Z,17.27
2022-10-31T12:21:16.512Z,17.85
2022-10-31T12:23:55.263Z,21.02
2022-10-31T12:26:32.692Z,15.38
2022-10-31T12:29:14.879Z,19.45
2022-10-31T12:31:54.902Z,18.25
2022-10-31T12:34:48.848Z,17.17
2022-10-31T12:37:30.313Z,19.25
2022-10-31T12:40:11.799Z,18.45
2022-10-31T12:42:53.690Z,17.42
2022-10-31T12:45:43.580Z,18.30
2022-10-31T12:48:32.399Z,19.25
2022-10-31T12:51:07.598Z,20.27
2022-10-31T12:53:48.425Z,21.00
2022-10-31T12:56:30.877Z,21.42
2022-10-31T12:59:06.372Z,21.65
2022-10-31T13:01:39.363Z,22.70
2022-10-31T13:04:16.539Z,22.70
2022-10-31T13:06:49.672Z,20.15
2022-10-31T13:09:21.708Z,23.38
2022-10-31T13:11:57.792Z,23.20
2022-10-31T13:14:32.046Z,21.80
2022-10-31T13:19:36.168Z,23.55
2022-10-31T13:22:08.603Z,21.40
2022-10-31T13:24:40.629Z,22.20
2022-10-31T13:27:16.062Z,23.05
2022-10-31T13:29:56.738Z,18.65
2022-10-31T13:32:25.344Z,23.70
2022-10-31T13:34:57.244Z,22.00
2022-10-31T13:37:33.113Z,19.10
2022-10-31T13:40:13.244Z,21.40
2022-10-31T13:42:53.070Z,22.38
2022-10-31T13:45:25.677Z,21.90
2022-10-31T13:48:00.426Z,19.48
2022-10-31T13:50:30.670Z,21.00
2022-10-31T13:53:16.513Z,20.25
2022-10-31T13:55:46.125Z,19.08
2022-10-31T13:58:25.868Z,16.90
2022-10-31T14:01:14.780Z,16.05
2022-10-31T14:06:46.413Z,19.60
2022-10-31T14:09:22.699Z,18.38
2022-10-31T14:11:52.286Z,19.77
2022-10-31T14:14:23.000Z,17.83
2022-10-31T14:16:58.904Z,19.65
2022-10-31T14:19:27.974Z,19.80
2022-10-31T14:21:56.343Z,18.48
2022-10-31T14:24:37.238Z,17.23
2022-10-31T14:27:27.657Z,19.63
2022-10-31T14:29:57.076Z,20.25
2022-10-31T14:32:27.680Z,23.02
2022-10-31T14:34:58.261Z,23.55
2022-10-31T14:37:49.520Z,20.20
2022-10-31T14:40:30.207Z,18.73
2022-10-31T14:43:33.383Z,19.02
2022-10-31T14:46:04.892Z,19.65
2022-10-31T14:49:08.029Z,17.38
2022-10-31T14:51:39.214Z,17.38
2022-10-31T14:54:10.484Z,18.80
2022-10-31T14:56:44.917Z,17.25
2022-10-31T14:59:18.555Z,17.17
2022-10-31T15:01:56.236Z,19.38
2022-10-31T15:04:27.004Z,19.67
2022-10-31T15:07:01.539Z,17.92
2022-10-31T15:09:31.606Z,18.42
2022-10-31T15:12:01.215Z,17.67
2022-10-31T15:14:30.799Z,15.85
2022-10-31T15:17:03.456Z,19.08
2022-10-31T15:19:34.937Z,18.48
2022-10-31T15:22:03.177Z,18.65
2022-10-31T15:24:36.238Z,19.83
2022-10-31T15:27:05.499Z,18.85
2022-10-31T15:29:34.052Z,19.77
2022-10-31T15:32:18.160Z,19.23
2022-10-31T15:34:46.795Z,19.90
2022-10-31T15:37:16.378Z,17.33
2022-10-31T15:39:45.653Z,19.42
2022-10-31T15:42:21.896Z,19.20
2022-10-31T15:44:53.857Z,19.73
2022-10-31T15:47:25.753Z,19.58
2022-10-31T15:49:55.854Z,19.92
2022-10-31T15:52:31.861Z,19.02
2022-10-31T15:55:04.179Z,19.67
2022-10-31T15:57:32.752Z,19.20
2022-10-31T16:00:00.830Z,19.55
2022-10-31T16:02:30.435Z,18.65
2022-10-31T16:05:01.422Z,19.98
2022-10-31T16:07:31.300Z,19.63
2022-10-31T16:10:00.979Z,20.40
2022-10-31T16:12:38.264Z,20.80
2022-10-31T16:15:08.804Z,19.13
2022-10-31T16:17:44.239Z,21.48
2022-10-31T16:20:22.402Z,19.20
2022-10-31T16:22:52.095Z,19.17
2022-10-31T16:25:26.857Z,18.88
2022-10-31T16:27:59.176Z,19.25
2022-10-31T16:30:32.776Z,21.20
2022-10-31T16:33:03.345Z,19.92
2022-10-31T16:35:36.100Z,19.70
2022-10-31T16:38:05.031Z,19.02
2022-10-31T16:40:34.053Z,19.00
2022-10-31T16:43:03.585Z,19.30
2022-10-31T16:45:33.476Z,19.55
2022-10-31T16:48:06.919Z,19.42
2022-10-31T16:50:35.096Z,20.83
2022-10-31T16:53:18.471Z,17.90
2022-10-31T16:55:48.721Z,18.52
2022-10-31T16:58:22.819Z,20.00
2022-10-31T17:00:51.793Z,19.40
2022-10-31T17:03:21.758Z,19.48
2022-10-31T17:05:50.165Z,18.02
2022-10-31T17:08:18.728Z,16.77
2022-10-31T17:10:47.606Z,18.08
2022-10-31T17:13:20.775Z,17.45
2022-10-31T17:15:51.545Z,16.35
2022-10-31T17:18:26.923Z,17.75
2022-10-31T17:20:59.725Z,16.02
2022-10-31T17:23:28.861Z,16.23
2022-10-31T17:25:57.020Z,17.35
2022-10-31T17:28:26.447Z,15.10
2022-10-31T17:30:56.057Z,15.18
2022-10-31T17:33:25.535Z,15.15
2022-10-31T17:35:53.796Z,16.13
2022-10-31T17:38:21.877Z,15.27
2022-10-31T17:40:50.049Z,14.98
2022-10-31T17:43:18.277Z,14.10
2022-10-31T17:45:46.447Z,15.70
2022-10-31T17:48:14.460Z,15.20
2022-10-31T17:50:44.196Z,14.80
2022-10-31T17:53:12.320Z,13.93
2022-10-31T17:55:40.427Z,14.00
2022-10-31T17:58:08.640Z,14.57
2022-10-31T18:00:36.783Z,14.50
2022-10-31T18:03:05.395Z,14.40
2022-10-31T18:05:33.858Z,15.27
2022-10-31T18:08:04.341Z,16.60
2022-10-31T18:10:33.090Z,15.00
2022-10-31T18:13:01.476Z,14.65
2022-10-31T18:15:29.822Z,14.45
2022-10-31T18:17:58.123Z,14.85
2022-10-31T18:20:26.382Z,13.85
2022-10-31T18:22:54.562Z,13.82
2022-10-31T18:25:24.115Z,14.65
2022-10-31T18:27:52.218Z,14.13
2022-10-31T18:30:20.485Z,14.35
2022-10-31T18:32:51.086Z,13.38
2022-10-31T18:35:19.753Z,13.05
2022-10-31T18:37:47.835Z,13.32
2022-10-31T18:40:16.562Z,12.50
2022-10-31T18:42:46.102Z,12.65
2022-10-31T18:45:31.365Z,11.77
2022-10-31T18:48:02.306Z,12.05
2022-10-31T18:50:30.581Z,11.52
2022-10-31T18:52:58.915Z,14.07
2022-10-31T18:55:27.341Z,15.57
2022-10-31T18:57:56.781Z,21.38
2022-10-31T19:00:24.815Z,24.15
2022-10-31T19:02:56.338Z,12.65
2022-10-31T19:05:24.766Z,11.35
2022-10-31T19:07:53.135Z,10.63
2022-10-31T19:10:21.155Z,10.88
2022-10-31T19:12:49.157Z,11.65
2022-10-31T19:15:18.832Z,10.88
2022-10-31T19:17:47.100Z,10.60
2022-10-31T19:20:15.520Z,10.88
2022-10-31T19:22:43.871Z,11.25
2022-10-31T19:25:12.195Z,10.70
2022-10-31T19:27:40.673Z,11.02
2022-10-31T19:30:09.994Z,11.40
2022-10-31T19:32:39.776Z,10.40
2022-10-31T19:35:09.374Z,10.40
2022-10-31T19:37:38.062Z,10.57
2022-10-31T19:40:08.676Z,10.63
2022-10-31T19:42:37.046Z,11.73
2022-10-31T19:45:05.844Z,11.57
2022-10-31T19:47:34.814Z,11.82
2022-10-31T19:50:05.715Z,11.70
2022-10-31T19:52:35.947Z,11.95
2022-10-31T19:55:04.584Z,13.77
2022-10-31T19:58:00.180Z,13.75
2022-10-31T20:00:23.455Z,14.80
2022-10-31T20:02:51.659Z,15.65
2022-10-31T20:05:21.082Z,14.73
2022-10-31T20:07:49.264Z,15.02
2022-10-31T20:10:17.525Z,16.50
2022-10-31T20:12:45.833Z,17.23
2022-10-31T20:15:13.798Z,16.50
2022-10-31T20:17:41.955Z,19.50
2022-10-31T20:20:10.739Z,20.70
2022-10-31T20:22:40.697Z,18.70
2022-10-31T20:25:09.315Z,22.80
2022-10-31T20:27:37.393Z,20.60
2022-10-31T20:30:06.039Z,22.42
2022-10-31T20:32:34.138Z,22.67
2022-10-31T20:35:02.246Z,24.02
2022-10-31T20:37:30.248Z,26.02
2022-10-31T20:39:59.748Z,24.67
2022-10-31T20:42:27.784Z,26.38
2022-10-31T20:44:55.943Z,26.67
2022-10-31T20:47:25.875Z,26.77
2022-10-31T20:49:54.126Z,26.27
2022-10-31T20:52:22.319Z,27.63
2022-10-31T20:54:50.607Z,26.17
2022-10-31T20:57:19.961Z,25.65
2022-10-31T20:59:48.119Z,26.75
2022-10-31T21:02:16.424Z,27.65
2022-10-31T21:04:44.527Z,28.75
2022-10-31T21:07:12.583Z,29.48
2022-10-31T21:09:40.781Z,27.45
2022-10-31T21:12:08.941Z,29.08
2022-10-31T21:14:38.337Z,28.42
2022-10-31T21:17:06.978Z,29.00
2022-10-31T21:19:36.150Z,27.08
2022-10-31T21:22:04.782Z,26.45
2022-10-31T21:24:32.976Z,29.30
2022-10-31T21:27:02.768Z,28.35
2022-10-31T21:29:31.343Z,30.27
2022-10-31T21:32:00.709Z,31.95
2022-10-31T21:34:28.801Z,31.45
2022-10-31T21:36:56.960Z,31.88
2022-10-31T21:39:24.982Z,29.30
2022-10-31T21:41:53.090Z,30.08
2022-10-31T21:44:21.307Z,31.48
2022-10-31T21:46:49.493Z,30.77
2022-10-31T21:49:18.965Z,33.38
2022-10-31T21:51:47.579Z,32.45
2022-10-31T21:54:33.358Z,31.13
2022-10-31T21:57:03.321Z,35.65
2022-10-31T21:59:31.660Z,34.42
2022-10-31T22:02:01.494Z,35.10
2022-10-31T22:04:31.212Z,34.55
2022-10-31T22:06:59.481Z,33.85
2022-10-31T22:09:27.727Z,34.33
2022-10-31T22:11:55.795Z,36.58
2022-10-31T22:14:23.927Z,34.17
2022-10-31T22:16:52.080Z,37.15
2022-10-31T22:19:20.182Z,34.50
2022-10-31T22:21:49.652Z,35.58
2022-10-31T22:24:18.656Z,35.13
2022-10-31T22:26:46.933Z,36.33
2022-10-31T22:29:18.516Z,35.88
2022-10-31T22:31:50.762Z,36.75
2022-10-31T22:34:21.881Z,38.00
2022-10-31T22:36:51.335Z,36.58
2022-10-31T22:39:20.164Z,36.33
2022-10-31T22:41:48.333Z,36.58
2022-10-31T22:44:16.348Z,36.40
2022-10-31T22:46:44.517Z,38.75
2022-10-31T22:49:15.189Z,40.38
2022-10-31T22:51:44.391Z,38.17
2022-10-31T22:54:16.333Z,38.17
2022-10-31T22:56:44.697Z,37.22
2022-10-31T22:59:14.860Z,40.10
2022-10-31T23:01:44.855Z,39.22
2022-10-31T23:04:13.785Z,40.72
2022-10-31T23:06:41.989Z,39.20
2022-10-31T23:09:12.278Z,42.38
2022-10-31T23:11:42.032Z,41.80
2022-10-31T23:14:14.172Z,41.92
2022-10-31T23:16:45.060Z,43.90
2022-10-31T23:19:17.288Z,42.95
2022-10-31T23:21:56.144Z,42.22
2022-10-31T23:24:30.386Z,43.72
2022-10-31T23:27:08.766Z,40.92
2022-10-31T23:29:43.395Z,42.25
2022-10-31T23:32:16.265Z,46.20
2022-10-31T23:34:45.063Z,42.97
2022-10-31T23:37:13.239Z,42.42
2022-10-31T23:39:41.853Z,43.08
2022-10-31T23:42:11.808Z,45.35
2022-10-31T23:44:39.931Z,46.40
2022-10-31T23:47:08.698Z,47.58
2022-10-31T23:49:37.148Z,45.22
2022-10-31T23:52:08.667Z,46.95
2022-10-31T23:54:37.213Z,45.30
2022-10-31T23:57:05.937Z,50.13
2022-10-31T23:59:36.854Z,49.05
